Time;durP1;ratioP1;P1;durP2;ratioP2;P2;SDS_P1;SDS_P2;PMS_P1;PMS_P2;Temp;Humidity;BMP_temperature;BMP_pressure;BME280_temperature;BME280_humidity;BME280_pressure;Samples;Min_cycle;Max_cycle;Signal;HPM_P1;HPM_P2
2022/06/28 00:01:53;;;;;;;154.20;139.65;;;16.00;97.40;;;;;;5055171;28;20045;-75
2022/06/28 00:04:20;;;;;;;155.57;140.80;;;16.00;97.40;;;;;;5073533;28;20144;-74
2022/06/28 00:06:48;;;;;;;154.13;139.73;;;16.00;97.40;;;;;;5073258;28;20136;-75
2022/06/28 00:09:16;;;;;;;153.95;139.75;;;16.00;97.40;;;;;;5055165;28;20580;-75
2022/06/28 00:11:43;;;;;;;154.18;139.90;;;15.90;97.40;;;;;;5054059;28;20092;-74
2022/06/28 00:16:58;;;;;;;154.32;140.02;;;15.90;97.40;;;;;;5054731;28;20060;-75
2022/06/28 00:19:25;;;;;;;150.70;136.63;;;15.80;97.40;;;;;;5054922;28;20055;-75
2022/06/28 00:21:52;;;;;;;149.95;135.85;;;15.80;97.50;;;;;;5055123;28;20136;-74
2022/06/28 00:24:19;;;;;;;150.05;136.05;;;15.70;97.50;;;;;;5054784;28;20138;-75
2022/06/28 00:26:47;;;;;;;152.45;138.30;;;15.70;97.60;;;;;;5073010;28;20166;-74
2022/06/28 00:29:15;;;;;;;151.43;137.45;;;15.60;97.60;;;;;;5038195;28;20053;-74
2022/06/28 00:31:42;;;;;;;149.88;135.88;;;15.60;97.60;;;;;;5038260;28;20561;-74
2022/06/28 00:34:10;;;;;;;149.80;135.35;;;15.60;97.70;;;;;;5054738;28;20041;-75
2022/06/28 00:36:37;;;;;;;147.15;133.35;;;15.50;97.70;;;;;;5054830;28;20052;-74
2022/06/28 00:39:04;;;;;;;147.00;133.40;;;15.50;97.70;;;;;;5072454;28;20115;-74
2022/06/28 00:41:31;;;;;;;149.05;135.35;;;15.40;97.70;;;;;;5072298;28;20084;-74
2022/06/28 00:43:59;;;;;;;146.10;132.25;;;15.40;97.70;;;;;;5036583;28;20088;-74
2022/06/28 00:46:26;;;;;;;146.45;132.82;;;15.40;97.70;;;;;;5037579;28;20048;-74
2022/06/28 00:48:54;;;;;;;146.30;132.70;;;15.40;97.80;;;;;;5036781;28;20647;-74
2022/06/28 00:51:22;;;;;;;146.50;132.88;;;15.40;97.80;;;;;;5037859;28;20047;-74
2022/06/28 00:53:51;;;;;;;146.73;132.85;;;15.40;97.80;;;;;;5037871;28;20499;-74
2022/06/28 00:56:18;;;;;;;145.68;132.10;;;15.30;97.70;;;;;;5072591;28;20044;-75
2022/06/28 00:58:44;;;;;;;147.02;133.02;;;15.30;97.70;;;;;;5072605;28;20060;-74
2022/06/28 01:01:11;;;;;;;148.73;134.32;;;15.20;97.60;;;;;;5037277;28;20053;-75
2022/06/28 01:03:40;;;;;;;149.88;135.35;;;15.20;97.60;;;;;;5054420;28;20052;-74
2022/06/28 01:06:07;;;;;;;153.38;138.40;;;15.20;97.70;;;;;;5072257;28;20053;-75
2022/06/28 01:08:36;;;;;;;151.85;137.00;;;15.20;97.70;;;;;;5071038;28;20053;-74
2022/06/28 01:11:18;;;;;;;151.70;137.13;;;15.20;97.70;;;;;;5037770;28;20441;-75
2022/06/28 01:13:49;;;;;;;151.63;136.63;;;15.20;97.70;;;;;;5054296;28;20056;-74
2022/06/28 01:16:17;;;;;;;153.38;138.10;;;15.20;97.60;;;;;;5053737;28;20044;-74
2022/06/28 01:18:45;;;;;;;150.05;135.35;;;15.20;97.60;;;;;;5054178;28;20080;-74
2022/06/28 01:21:35;;;;;;;148.43;134.20;;;15.20;97.60;;;;;;5037655;28;20049;-74
2022/06/28 01:24:05;;;;;;;150.18;135.98;;;15.20;97.60;;;;;;5054409;28;20053;-74
2022/06/28 01:26:40;;;;;;;150.40;135.82;;;15.30;97.60;;;;;;5037145;28;20501;-75
2022/06/28 01:29:09;;;;;;;149.80;135.35;;;15.20;97.60;;;;;;5072160;28;20160;-75
2022/06/28 01:31:43;;;;;;;151.73;136.93;;;15.20;97.50;;;;;;5054020;28;20061;-74
2022/06/28 01:34:11;;;;;;;151.38;136.85;;;15.20;97.60;;;;;;5037167;28;20101;-74
2022/06/28 01:36:39;;;;;;;148.23;133.98;;;15.10;97.50;;;;;;5054015;28;20088;-74
2022/06/28 01:39:09;;;;;;;149.77;135.48;;;15.10;97.40;;;;;;5054065;28;20284;-74
2022/06/28 01:41:36;;;;;;;156.05;140.50;;;15.20;97.40;;;;;;5053970;28;20049;-74
2022/06/28 01:44:14;;;;;;;154.88;139.68;;;15.10;97.40;;;;;;5036970;28;20620;-74
2022/06/28 01:46:58;;;;;;;153.23;138.23;;;15.20;97.40;;;;;;5051287;28;20171;-75
2022/06/28 01:49:38;;;;;;;150.68;135.98;;;15.20;97.40;;;;;;5036834;28;20045;-74
2022/06/28 01:52:06;;;;;;;149.88;135.57;;;15.10;97.40;;;;;;5053989;28;20049;-74
2022/06/28 01:54:34;;;;;;;153.52;138.73;;;15.10;97.40;;;;;;5053767;28;20049;-74
2022/06/28 01:57:02;;;;;;;152.85;137.95;;;15.10;97.40;;;;;;5053082;28;20580;-74
2022/06/28 01:59:48;;;;;;;153.30;138.40;;;15.10;97.40;;;;;;5071877;28;20053;-74
2022/06/28 02:02:31;;;;;;;151.23;136.38;;;15.10;97.40;;;;;;5053976;28;20064;-74
2022/06/28 02:05:16;;;;;;;147.43;133.23;;;15.10;97.40;;;;;;5053732;28;20045;-74
2022/06/28 02:07:48;;;;;;;150.90;136.20;;;15.10;97.30;;;;;;5053526;28;20052;-74
2022/06/28 02:10:17;;;;;;;148.52;133.98;;;15.00;97.30;;;;;;5037034;28;20052;-74
2022/06/28 02:12:45;;;;;;;152.02;137.30;;;15.00;97.30;;;;;;5036627;28;20095;-74
2022/06/28 02:15:13;;;;;;;149.90;135.40;;;15.10;97.30;;;;;;5056340;28;20053;-75
2022/06/28 02:17:41;;;;;;;148.77;134.48;;;15.10;97.30;;;;;;5055723;28;20049;-74
2022/06/28 02:20:10;;;;;;;151.55;136.75;;;15.00;97.30;;;;;;5054971;28;20052;-74
2022/06/28 02:22:37;;;;;;;155.02;139.75;;;15.00;97.30;;;;;;5038615;28;20049;-74
2022/06/28 02:25:05;;;;;;;155.88;140.82;;;15.00;97.30;;;;;;5038369;28;20459;-74
2022/06/28 02:27:33;;;;;;;152.80;137.98;;;15.00;97.30;;;;;;5037982;28;20056;-74
2022/06/28 02:30:00;;;;;;;150.35;135.68;;;14.90;97.30;;;;;;5054751;28;20059;-74
2022/06/28 02:32:27;;;;;;;151.57;136.57;;;14.90;97.30;;;;;;5054876;28;20044;-74
2022/06/28 02:40:23;;;;;;;150.85;136.38;;;14.80;97.30;;;;;;5039789;28;20534;-74
2022/06/28 02:42:53;;;;;;;148.68;134.05;;;14.80;97.30;;;;;;5056172;28;20053;-74
2022/06/28 02:45:20;;;;;;;149.35;134.75;;;14.80;97.40;;;;;;5074657;28;20048;-74
2022/06/28 02:47:47;;;;;;;146.63;132.52;;;14.70;97.40;;;;;;5055651;28;20053;-74
2022/06/28 02:50:15;;;;;;;148.32;134.15;;;14.70;97.40;;;;;;5039481;28;20689;-74
2022/06/28 02:52:42;;;;;;;151.75;137.15;;;14.70;97.40;;;;;;5038244;28;20052;-74
2022/06/28 02:55:10;;;;;;;151.13;136.32;;;14.70;97.40;;;;;;5039115;28;20140;-74
2022/06/28 02:57:38;;;;;;;148.88;134.38;;;14.70;97.40;;;;;;5055563;28;20597;-74
2022/06/28 03:00:09;;;;;;;150.45;135.70;;;14.60;97.40;;;;;;5056123;28;20490;-74
2022/06/28 03:02:36;;;;;;;148.55;134.13;;;14.70;97.40;;;;;;5056205;28;20049;-74
2022/06/28 03:05:05;;;;;;;146.95;132.45;;;14.70;97.40;;;;;;5039403;28;20048;-74
2022/06/28 03:07:32;;;;;;;146.45;131.95;;;14.70;97.40;;;;;;5039129;28;20049;-74
2022/06/28 03:09:59;;;;;;;148.82;133.95;;;14.60;97.30;;;;;;5039303;28;20041;-74
2022/06/28 03:12:26;;;;;;;149.10;134.40;;;14.60;97.30;;;;;;5055824;28;20457;-74
2022/06/28 03:14:53;;;;;;;145.00;130.77;;;14.60;97.20;;;;;;5039233;28;20435;-74
2022/06/28 03:17:21;;;;;;;144.73;130.77;;;14.60;97.20;;;;;;5073913;28;20049;-74
2022/06/28 03:19:48;;;;;;;145.65;131.55;;;14.60;97.20;;;;;;5055839;28;20053;-74
2022/06/28 03:22:16;;;;;;;149.32;134.82;;;14.60;97.20;;;;;;5039412;28;20052;-74
2022/06/28 03:24:43;;;;;;;144.98;130.73;;;14.60;97.20;;;;;;5038812;28;20533;-74
2022/06/28 03:27:10;;;;;;;147.43;132.80;;;14.50;97.20;;;;;;5073670;28;20142;-74
2022/06/28 03:29:37;;;;;;;142.85;128.98;;;14.60;97.20;;;;;;5039365;28;20502;-74
2022/06/28 03:32:08;;;;;;;143.15;129.10;;;14.50;97.20;;;;;;5055920;28;20082;-74
2022/06/28 03:34:37;;;;;;;144.30;130.20;;;14.50;97.20;;;;;;5039456;28;20055;-74
2022/06/28 03:37:05;;;;;;;150.73;136.02;;;14.50;97.20;;;;;;5038294;28;20056;-74
2022/06/28 03:39:39;;;;;;;149.18;134.57;;;14.50;97.20;;;;;;5039252;28;20048;-74
2022/06/28 03:42:06;;;;;;;145.95;131.30;;;14.50;97.20;;;;;;5055959;28;20497;-74
2022/06/28 03:44:36;;;;;;;148.90;132.90;;;14.50;97.20;;;;;;5039234;28;20961;-74
2022/06/28 03:47:05;;;;;;;148.40;134.10;;;14.50;97.10;;;;;;5054846;28;20053;-74
2022/06/28 03:49:53;;;;;;;146.68;132.48;;;14.50;97.20;;;;;;5038762;28;20056;-74
2022/06/28 03:52:38;;;;;;;145.32;131.05;;;14.50;97.30;;;;;;5073508;28;20088;-74
2022/06/28 03:55:14;;;;;;;144.18;130.43;;;14.50;97.20;;;;;;5055273;28;20077;-74
2022/06/28 03:57:49;;;;;;;142.00;127.93;;;14.40;97.10;;;;;;5038286;28;20059;-74
2022/06/28 04:00:17;;;;;;;143.93;129.70;;;14.50;97.20;;;;;;5055012;28;20053;-74
2022/06/28 04:02:50;;;;;;;144.60;130.40;;;14.40;97.30;;;;;;5038855;28;20049;-74
2022/06/28 04:05:29;;;;;;;144.15;129.70;;;14.40;97.30;;;;;;5055578;28;20055;-74
2022/06/28 04:07:59;;;;;;;143.05;129.05;;;14.40;97.40;;;;;;5054811;28;20055;-74
2022/06/28 04:10:45;;;;;;;139.98;125.95;;;14.30;97.40;;;;;;5055238;28;20463;-74
2022/06/28 04:13:17;;;;;;;143.68;129.35;;;14.30;97.50;;;;;;5038415;28;20583;-74
2022/06/28 04:15:44;;;;;;;145.77;131.70;;;14.30;97.60;;;;;;5054901;28;20053;-74
2022/06/28 04:18:15;;;;;;;144.23;130.18;;;14.30;97.60;;;;;;5054753;28;20060;-74
2022/06/28 04:21:03;;;;;;;141.60;127.55;;;14.30;97.70;;;;;;5054794;28;20041;-74
2022/06/28 04:23:30;;;;;;;140.82;126.85;;;14.20;97.70;;;;;;5037529;28;20497;-74
2022/06/28 04:25:57;;;;;;;140.95;126.78;;;14.20;97.70;;;;;;5054938;28;20057;-74
2022/06/28 04:28:32;;;;;;;;;;;14.30;97.80;;;;;;5055299;28;20053;-74
2022/06/28 04:31:09;;;;;;;139.45;124.97;;;14.20;97.60;;;;;;5055037;28;19928;-74
2022/06/28 04:33:37;;;;;;;139.27;125.18;;;14.20;97.80;;;;;;5055100;28;20096;-74
2022/06/28 04:36:06;;;;;;;141.68;127.32;;;14.20;97.90;;;;;;5037168;28;20045;-74
2022/06/28 04:38:34;;;;;;;140.93;126.72;;;14.20;98.00;;;;;;5037901;28;20139;-74
2022/06/28 04:41:08;;;;;;;139.73;125.47;;;14.20;98.00;;;;;;5038487;28;20086;-74
2022/06/28 04:43:44;;;;;;;145.85;131.40;;;14.20;98.10;;;;;;5054558;28;20128;-74
2022/06/28 04:46:16;;;;;;;147.95;133.20;;;14.20;98.10;;;;;;5054319;28;20077;-74
2022/06/28 04:48:46;;;;;;;147.82;133.02;;;14.20;98.20;;;;;;5054192;28;20049;-74
2022/06/28 04:51:15;;;;;;;148.50;133.70;;;14.20;98.20;;;;;;5037903;28;20585;-74
2022/06/28 04:53:45;;;;;;;146.73;131.73;;;14.20;98.30;;;;;;5054750;28;20629;-74
2022/06/28 04:56:13;;;;;;;146.48;131.68;;;14.20;98.30;;;;;;5023188;28;20128;-73
2022/06/28 04:58:47;;;;;;;148.38;133.02;;;14.20;98.40;;;;;;5017495;28;20586;-73
2022/06/28 05:01:14;;;;;;;147.10;131.98;;;14.20;98.40;;;;;;5034287;28;20099;-73
2022/06/28 05:03:42;;;;;;;144.25;129.55;;;14.20;98.50;;;;;;5042290;28;20083;-73
2022/06/28 05:06:29;;;;;;;140.95;126.85;;;14.20;98.50;;;;;;5069108;28;20060;-73
2022/06/28 05:08:57;;;;;;;140.60;126.65;;;14.20;98.60;;;;;;5037153;28;20049;-73
2022/06/28 05:11:24;;;;;;;141.45;126.80;;;14.30;98.70;;;;;;5036378;28;20549;-74
2022/06/28 05:14:06;;;;;;;140.48;126.30;;;14.30;98.70;;;;;;5036520;28;20689;-73
2022/06/28 05:16:34;;;;;;;141.45;127.10;;;14.30;98.70;;;;;;5051552;28;20158;-74
2022/06/28 05:19:01;;;;;;;144.90;129.93;;;14.40;98.80;;;;;;5049874;28;20049;-73
2022/06/28 05:21:36;;;;;;;146.52;131.52;;;14.40;98.80;;;;;;5035802;28;20072;-74
2022/06/28 05:24:03;;;;;;;148.13;132.38;;;14.40;98.90;;;;;;5033776;28;20053;-74
2022/06/28 05:26:30;;;;;;;141.38;127.05;;;14.40;98.90;;;;;;5071218;28;20049;-74
2022/06/28 05:29:16;;;;;;;146.32;130.88;;;14.50;99.00;;;;;;5048139;28;20057;-75
2022/06/28 05:31:43;;;;;;;143.82;128.73;;;14.50;99.00;;;;;;5052327;28;20053;-74
2022/06/28 05:34:10;;;;;;;143.90;129.13;;;14.50;99.00;;;;;;5051913;28;20045;-74
2022/06/28 05:36:39;;;;;;;141.63;127.25;;;14.60;99.10;;;;;;5050656;28;20148;-74
2022/06/28 05:39:06;;;;;;;139.73;125.50;;;14.60;99.10;;;;;;5050793;28;20436;-74
2022/06/28 05:41:33;;;;;;;142.13;127.60;;;14.60;99.10;;;;;;5051369;28;20075;-73
2022/06/28 05:44:01;;;;;;;146.90;131.60;;;14.70;99.20;;;;;;5034581;28;20049;-74
2022/06/28 05:46:28;;;;;;;145.38;130.43;;;14.70;99.30;;;;;;5034362;28;20525;-74
2022/06/28 05:48:55;;;;;;;147.43;132.23;;;14.80;99.30;;;;;;5054096;28;20118;-74
2022/06/28 05:51:22;;;;;;;143.95;128.75;;;14.80;99.30;;;;;;5074463;28;20132;-75
2022/06/28 05:53:51;;;;;;;148.77;133.25;;;14.80;99.40;;;;;;5038547;28;20577;-75
2022/06/28 05:56:19;;;;;;;144.93;129.98;;;14.90;99.40;;;;;;5039357;28;20523;-75
2022/06/28 05:58:46;;;;;;;144.00;129.48;;;14.90;99.40;;;;;;5053841;28;20543;-76
2022/06/28 06:01:13;;;;;;;145.88;130.98;;;15.00;99.40;;;;;;5056126;28;20053;-74
2022/06/28 06:03:40;;;;;;;150.68;134.60;;;15.00;99.40;;;;;;5054093;28;20049;-75
2022/06/28 06:06:07;;;;;;;149.35;133.73;;;15.00;99.40;;;;;;5039971;28;20466;-76
2022/06/28 06:08:35;;;;;;;148.02;132.63;;;15.10;99.40;;;;;;5039564;28;20053;-76
2022/06/28 06:11:07;;;;;;;149.50;133.77;;;15.20;99.50;;;;;;5039633;28;20491;-76
2022/06/28 06:13:34;;;;;;;153.02;137.30;;;15.20;99.50;;;;;;5056298;28;20080;-77
2022/06/28 06:16:01;;;;;;;148.38;133.48;;;15.30;99.50;;;;;;5053833;28;20045;-79
2022/06/28 06:18:28;;;;;;;155.07;139.48;;;15.30;99.50;;;;;;5055276;28;20053;-78
2022/06/28 06:20:55;;;;;;;150.95;135.32;;;15.30;99.50;;;;;;5055065;28;20053;-75
2022/06/28 06:23:22;;;;;;;157.43;141.43;;;15.40;99.40;;;;;;5038780;28;20072;-75
2022/06/28 06:26:06;;;;;;;148.43;133.38;;;15.40;99.50;;;;;;5073218;28;20056;-75
2022/06/28 06:28:35;;;;;;;149.88;134.20;;;15.50;99.50;;;;;;5055664;28;20115;-75
2022/06/28 06:31:02;;;;;;;155.77;139.40;;;15.50;99.40;;;;;;5038122;28;20261;-75
2022/06/28 06:33:48;;;;;;;150.77;135.50;;;15.60;99.40;;;;;;5053819;28;20107;-75
2022/06/28 06:36:27;;;;;;;149.95;134.90;;;15.60;99.40;;;;;;5035595;28;20056;-75
2022/06/28 06:38:54;;;;;;;152.45;136.35;;;15.70;99.40;;;;;;5036775;28;20048;-75
2022/06/28 06:41:23;;;;;;;150.57;135.18;;;15.70;99.50;;;;;;5054124;28;20568;-75
2022/06/28 06:43:52;;;;;;;144.70;130.27;;;15.80;99.40;;;;;;5054030;28;20491;-75
2022/06/28 06:46:21;;;;;;;139.82;125.82;;;15.80;99.40;;;;;;5054686;28;20056;-76
2022/06/28 06:48:48;;;;;;;149.52;134.02;;;15.80;99.20;;;;;;5037983;28;20491;-76
2022/06/28 06:51:15;;;;;;;148.63;133.43;;;15.80;99.20;;;;;;5039477;28;20502;-76
2022/06/28 06:53:42;;;;;;;145.40;130.77;;;15.90;99.20;;;;;;5055097;28;20176;-75
2022/06/28 06:56:09;;;;;;;144.52;130.20;;;15.90;99.20;;;;;;5039110;28;20120;-75
2022/06/28 06:58:38;;;;;;;146.07;131.73;;;16.00;99.20;;;;;;5038489;28;20533;-75
2022/06/28 07:01:05;;;;;;;152.38;137.57;;;16.10;99.20;;;;;;5056289;28;20045;-76
2022/06/28 07:03:34;;;;;;;146.55;131.93;;;16.10;99.20;;;;;;5056169;28;20135;-76
2022/06/28 07:06:01;;;;;;;149.88;135.43;;;16.20;99.20;;;;;;5055397;28;20052;-75
2022/06/28 07:08:28;;;;;;;149.70;134.60;;;16.20;99.20;;;;;;5035431;28;20045;-74
2022/06/28 07:11:01;;;;;;;143.30;129.02;;;16.20;99.20;;;;;;5051916;28;20044;-74
2022/06/28 07:13:28;;;;;;;148.57;133.43;;;16.30;99.10;;;;;;5037469;28;20547;-74
2022/06/28 07:15:57;;;;;;;153.15;137.25;;;16.30;99.20;;;;;;5053139;28;20041;-74
2022/06/28 07:18:24;;;;;;;149.77;134.77;;;16.40;99.10;;;;;;5053609;28;20582;-75
2022/06/28 07:20:52;;;;;;;153.43;138.20;;;16.50;99.10;;;;;;5054653;28;20127;-75
2022/06/28 07:23:19;;;;;;;149.05;134.50;;;16.50;99.00;;;;;;5037737;28;20049;-75
2022/06/28 07:25:46;;;;;;;148.43;133.43;;;16.60;99.10;;;;;;5037316;28;20053;-74
2022/06/28 07:28:14;;;;;;;150.32;135.48;;;16.60;99.00;;;;;;5036337;28;20053;-75
2022/06/28 07:30:41;;;;;;;149.82;134.57;;;16.70;98.90;;;;;;5029674;28;20049;-75
2022/06/28 07:33:09;;;;;;;148.25;133.63;;;16.70;98.70;;;;;;5038571;28;20063;-76
2022/06/28 07:35:36;;;;;;;146.38;132.27;;;16.70;98.70;;;;;;5054046;28;20180;-75
2022/06/28 07:38:03;;;;;;;146.30;132.07;;;16.80;98.50;;;;;;5036950;28;20060;-75
2022/06/28 07:40:49;;;;;;;149.48;135.07;;;16.80;98.40;;;;;;5052084;28;20522;-75
2022/06/28 07:43:51;;;;;;;146.68;132.23;;;16.90;98.10;;;;;;5052515;28;20060;-75
2022/06/28 07:46:22;;;;;;;148.45;134.00;;;16.90;98.20;;;;;;5034642;28;20597;-75
2022/06/28 07:48:51;;;;;;;148.27;133.70;;;16.90;98.30;;;;;;5037274;28;20057;-75
2022/06/28 07:54:20;;;;;;;150.13;136.02;;;17.00;98.30;;;;;;4963042;28;20051;-75
2022/06/28 07:57:01;;;;;;;148.05;133.45;;;17.10;98.10;;;;;;4977850;28;20059;-75
2022/06/28 07:59:30;;;;;;;146.00;131.88;;;17.10;98.00;;;;;;5022511;28;20056;-76
2022/06/28 08:01:58;;;;;;;144.20;130.10;;;17.20;97.90;;;;;;5052164;28;20057;-75
2022/06/28 08:04:33;;;;;;;146.20;132.27;;;17.20;97.70;;;;;;5071045;28;20061;-76
2022/06/28 08:07:01;;;;;;;151.10;136.85;;;17.20;97.60;;;;;;5037770;28;20127;-75
2022/06/28 08:09:30;;;;;;;149.63;135.55;;;17.30;97.30;;;;;;5036602;28;20077;-75
2022/06/28 08:11:59;;;;;;;151.20;137.23;;;17.30;97.40;;;;;;5052519;28;20053;-75
2022/06/28 08:14:27;;;;;;;151.93;137.82;;;17.30;97.50;;;;;;5035670;28;20060;-75
2022/06/28 08:16:54;;;;;;;153.32;139.10;;;17.40;97.60;;;;;;5036680;28;20045;-75
2022/06/28 08:19:21;;;;;;;149.15;135.07;;;17.40;97.60;;;;;;5070911;28;20135;-75
2022/06/28 08:21:51;;;;;;;146.35;132.45;;;17.50;97.60;;;;;;5052088;28;20049;-74
2022/06/28 08:24:18;;;;;;;145.60;132.25;;;17.50;97.50;;;;;;5036961;28;20056;-74
2022/06/28 08:26:46;;;;;;;145.32;131.73;;;17.60;96.80;;;;;;5052532;28;20111;-76
2022/06/28 08:29:14;;;;;;;146.65;132.43;;;17.70;97.00;;;;;;5053559;28;20063;-75
2022/06/28 08:31:42;;;;;;;147.27;133.57;;;17.80;96.70;;;;;;5037234;28;20158;-75
2022/06/28 08:34:09;;;;;;;150.15;136.18;;;17.80;96.50;;;;;;5037151;28;20096;-75
2022/06/28 08:36:36;;;;;;;149.95;135.90;;;17.90;96.40;;;;;;5053263;28;20045;-75
2022/06/28 08:39:06;;;;;;;150.40;136.27;;;17.90;96.60;;;;;;5052969;28;20473;-75
2022/06/28 08:41:35;;;;;;;145.77;131.32;;;18.00;96.30;;;;;;5053862;28;20072;-75
2022/06/28 08:44:02;;;;;;;146.23;132.18;;;18.10;96.10;;;;;;5071930;28;20057;-75
2022/06/28 08:46:31;;;;;;;151.57;137.48;;;18.10;95.90;;;;;;5053407;28;20527;-75
2022/06/28 08:49:03;;;;;;;154.63;140.25;;;18.10;96.00;;;;;;5036735;28;20495;-75
2022/06/28 08:51:32;;;;;;;153.50;139.18;;;18.10;95.80;;;;;;5035562;28;20135;-75
2022/06/28 08:54:02;;;;;;;151.50;137.90;;;18.20;95.30;;;;;;5054579;28;20057;-75
2022/06/28 08:56:30;;;;;;;146.40;132.93;;;18.20;95.00;;;;;;5052605;28;20111;-75
2022/06/28 08:58:59;;;;;;;150.60;136.65;;;18.20;94.60;;;;;;5053079;28;20501;-75
2022/06/28 09:01:27;;;;;;;149.07;135.57;;;18.30;94.30;;;;;;5053149;28;20049;-75
2022/06/28 09:03:55;;;;;;;150.77;136.77;;;18.30;94.40;;;;;;5070986;28;20083;-76
2022/06/28 09:06:23;;;;;;;151.80;137.50;;;18.30;94.30;;;;;;5070785;28;20057;-75
2022/06/28 09:08:50;;;;;;;152.23;138.80;;;18.30;94.10;;;;;;5071499;28;20435;-76
2022/06/28 09:11:17;;;;;;;156.05;142.10;;;18.30;94.20;;;;;;5036651;28;20594;-77
2022/06/28 09:13:45;;;;;;;150.25;136.95;;;18.30;94.10;;;;;;5053162;28;20156;-77
2022/06/28 09:16:13;;;;;;;148.32;135.10;;;18.30;94.20;;;;;;5053318;28;20045;-76
2022/06/28 09:18:46;;;;;;;150.38;136.77;;;18.40;93.60;;;;;;5036505;28;20227;-76
2022/06/28 09:21:14;;;;;;;150.70;137.20;;;18.40;93.10;;;;;;5068680;28;20053;-76
2022/06/28 09:23:43;;;;;;;152.40;138.52;;;18.50;93.40;;;;;;5073509;28;20483;-75
2022/06/28 09:26:12;;;;;;;154.00;140.48;;;18.50;93.60;;;;;;5053686;28;20107;-75
2022/06/28 09:28:43;;;;;;;151.02;137.57;;;18.60;93.00;;;;;;5056015;28;20106;-76
2022/06/28 09:31:20;;;;;;;155.68;142.05;;;18.60;92.40;;;;;;5069830;28;20541;-77
2022/06/28 09:33:49;;;;;;;150.73;137.02;;;18.70;92.20;;;;;;5057330;28;20442;-76
2022/06/28 09:36:18;;;;;;;157.45;143.45;;;18.70;92.10;;;;;;5057132;28;20131;-78
2022/06/28 09:38:45;;;;;;;156.98;142.65;;;18.80;92.60;;;;;;5074209;28;20064;-77
2022/06/28 09:41:23;;;;;;;155.52;141.73;;;18.80;92.80;;;;;;5056739;28;20045;-77
2022/06/28 09:44:01;;;;;;;152.48;138.57;;;18.90;92.50;;;;;;5075029;28;20592;-75
2022/06/28 09:46:30;;;;;;;153.27;139.38;;;19.00;91.90;;;;;;5073901;28;20049;-75
2022/06/28 09:48:59;;;;;;;156.70;142.57;;;19.10;91.20;;;;;;5056763;28;20111;-77
2022/06/28 09:51:27;;;;;;;150.68;136.55;;;19.10;90.90;;;;;;5074920;28;20107;-75
2022/06/28 09:53:56;;;;;;;150.50;136.60;;;19.20;90.80;;;;;;5057250;28;20064;-76
2022/06/28 09:56:24;;;;;;;157.00;143.30;;;19.20;90.40;;;;;;5056826;28;20482;-76
2022/06/28 09:58:52;;;;;;;157.48;143.57;;;19.20;88.10;;;;;;5056360;28;20069;-76
2022/06/28 10:01:20;;;;;;;153.45;140.05;;;19.20;87.20;;;;;;5040145;28;20072;-77
2022/06/28 10:03:50;;;;;;;155.73;141.93;;;19.30;86.30;;;;;;5056748;28;20132;-78
2022/06/28 10:06:18;;;;;;;159.07;145.55;;;19.30;84.20;;;;;;5038368;28;20481;-77
2022/06/28 10:08:46;;;;;;;156.95;143.32;;;19.30;84.20;;;;;;5073923;28;20061;-78
2022/06/28 10:11:14;;;;;;;152.50;139.25;;;19.30;85.00;;;;;;5057607;28;20063;-77
2022/06/28 10:16:38;;;;;;;150.13;136.95;;;19.50;84.30;;;;;;5056721;28;20142;-83
2022/06/28 10:19:07;;;;;;;151.05;137.75;;;19.60;81.90;;;;;;5039683;28;20519;-81
2022/06/28 10:21:46;;;;;;;153.52;139.95;;;19.60;83.30;;;;;;5056204;28;20052;-82
2022/06/28 10:24:13;;;;;;;154.20;140.48;;;19.60;83.10;;;;;;5056521;28;20055;-79
2022/06/28 10:26:45;;;;;;;152.77;139.50;;;19.70;83.50;;;;;;5039973;28;20045;-82
2022/06/28 10:29:12;;;;;;;151.43;138.45;;;19.70;83.00;;;;;;5038789;28;20053;-78
2022/06/28 10:31:41;;;;;;;156.77;143.20;;;19.80;83.90;;;;;;5073017;28;20056;-77
2022/06/28 10:34:12;;;;;;;157.30;143.20;;;19.80;83.50;;;;;;5071740;28;20549;-80
2022/06/28 10:36:46;;;;;;;158.48;144.65;;;19.90;84.90;;;;;;5055166;28;20128;-82
2022/06/28 10:39:24;;;;;;;150.57;137.63;;;20.00;83.20;;;;;;5053102;28;20156;-80
2022/06/28 10:41:53;;;;;;;153.85;140.55;;;20.00;83.00;;;;;;5036247;28;20146;-82
2022/06/28 10:44:22;;;;;;;158.57;145.20;;;20.10;82.30;;;;;;5039359;28;20107;-79
2022/06/28 10:46:52;;;;;;;157.73;144.52;;;20.10;81.50;;;;;;5035846;28;20061;-81
2022/06/28 10:49:21;;;;;;;157.27;144.20;;;20.20;80.20;;;;;;5039690;28;20052;-82
2022/06/28 10:52:08;;;;;;;161.70;148.15;;;20.30;78.30;;;;;;5055566;28;20068;-77
2022/06/28 10:54:35;;;;;;;163.80;149.77;;;20.30;76.90;;;;;;5039683;28;20147;-79
2022/06/28 10:57:19;;;;;;;169.63;155.15;;;20.40;75.80;;;;;;5054270;28;20534;-78
2022/06/28 10:59:48;;;;;;;160.88;147.27;;;20.50;74.70;;;;;;5053461;28;20049;-79
2022/06/28 11:02:15;;;;;;;167.40;153.55;;;20.50;75.70;;;;;;5054562;28;20049;-78
2022/06/28 11:04:45;;;;;;;162.27;148.60;;;20.60;78.10;;;;;;5037967;28;20053;-76
2022/06/28 11:07:23;;;;;;;164.68;150.82;;;20.60;74.30;;;;;;5053670;28;20059;-78
2022/06/28 11:10:11;;;;;;;153.75;140.52;;;20.70;74.40;;;;;;5073370;28;20463;-78
2022/06/28 11:12:40;;;;;;;152.98;139.20;;;20.70;74.60;;;;;;5055626;28;20055;-78
2022/06/28 11:15:09;;;;;;;152.82;139.63;;;20.80;73.20;;;;;;5056002;28;20053;-80
2022/06/28 11:17:38;;;;;;;152.48;139.30;;;20.80;73.40;;;;;;5050000;28;20049;-80
2022/06/28 11:20:09;;;;;;;159.90;146.73;;;20.80;73.30;;;;;;5035396;28;20077;-80
2022/06/28 11:22:40;;;;;;;160.20;146.98;;;20.80;74.40;;;;;;5034933;28;20132;-78
2022/06/28 11:25:08;;;;;;;156.75;143.05;;;20.80;76.00;;;;;;5035650;28;20045;-78
2022/06/28 11:27:34;;;;;;;162.65;149.07;;;20.80;75.40;;;;;;5053346;28;20055;-78
2022/06/28 11:30:07;;;;;;;159.82;146.95;;;20.80;74.70;;;;;;5053043;28;20041;-78
2022/06/28 11:32:35;;;;;;;159.80;146.73;;;20.80;74.70;;;;;;5071740;28;20063;-78
2022/06/28 11:35:05;;;;;;;155.98;142.55;;;20.90;73.90;;;;;;5052613;28;20328;-78
2022/06/28 11:37:46;;;;;;;155.90;142.20;;;20.90;74.00;;;;;;5051352;28;20133;-78
2022/06/28 11:40:13;;;;;;;157.77;144.73;;;20.90;72.30;;;;;;5051955;28;20057;-78
2022/06/28 11:42:40;;;;;;;148.80;136.10;;;20.90;73.90;;;;;;5054812;28;20063;-78
2022/06/28 11:45:07;;;;;;;154.82;142.23;;;21.00;74.20;;;;;;5055008;28;20527;-78
2022/06/28 11:47:35;;;;;;;161.35;148.10;;;21.00;73.80;;;;;;5053980;28;20041;-79
2022/06/28 11:50:15;;;;;;;151.50;138.63;;;21.00;72.80;;;;;;5054629;28;20045;-78
2022/06/28 11:52:48;;;;;;;162.48;149.10;;;21.10;73.80;;;;;;5048758;28;20884;-77
2022/06/28 11:55:15;;;;;;;163.38;150.00;;;21.10;75.60;;;;;;5054868;28;20491;-79
2022/06/28 11:57:44;;;;;;;164.13;150.85;;;21.10;74.80;;;;;;5055037;28;20049;-79
2022/06/28 12:00:13;;;;;;;164.05;150.85;;;21.20;73.80;;;;;;5054388;28;20151;-79
2022/06/28 12:02:46;;;;;;;159.88;146.88;;;21.30;73.20;;;;;;5038087;28;20052;-79
2022/06/28 12:05:14;;;;;;;155.65;142.60;;;21.40;73.00;;;;;;5072265;28;20063;-79
2022/06/28 12:07:43;;;;;;;158.07;144.88;;;21.40;73.30;;;;;;5053712;28;20135;-78
2022/06/28 12:10:26;;;;;;;168.63;155.38;;;21.50;71.40;;;;;;5054848;28;20061;-78
2022/06/28 12:12:53;;;;;;;162.40;149.35;;;21.50;71.80;;;;;;5037655;28;20056;-76
2022/06/28 12:15:29;;;;;;;165.68;152.35;;;21.60;73.30;;;;;;5054354;28;20053;-78
2022/06/28 12:17:59;;;;;;;165.27;152.10;;;21.70;72.70;;;;;;5054000;28;20088;-80
2022/06/28 12:20:26;;;;;;;165.02;151.73;;;21.80;71.80;;;;;;5072947;28;20080;-77
2022/06/28 12:23:01;;;;;;;169.77;156.52;;;21.90;72.10;;;;;;5054815;28;20067;-79
2022/06/28 12:25:30;;;;;;;161.73;148.43;;;21.90;74.20;;;;;;5054546;28;20111;-79
2022/06/28 12:27:57;;;;;;;167.70;154.23;;;22.00;74.00;;;;;;5051898;28;20045;-78
2022/06/28 12:30:25;;;;;;;168.15;154.80;;;22.00;71.50;;;;;;5054092;28;20544;-78
2022/06/28 12:32:53;;;;;;;165.43;152.20;;;22.10;70.50;;;;;;5037850;28;20099;-78
2022/06/28 12:35:20;;;;;;;165.43;152.18;;;22.20;72.50;;;;;;5052654;28;20052;-77
2022/06/28 12:37:47;;;;;;;169.18;155.77;;;22.20;70.30;;;;;;5070900;28;20065;-77